<?xml version="1.0" encoding="UTF-8" standalone="no" ?>
<gpx xmlns="http://www.topografix.com/GPX/1/1" xmlns:xsi="http://www.w3.org/2001/XMLSchema-instance" xsi:schemaLocation="http://www.topografix.com/GPX/1/1 http://www.topografix.com/GPX/1/1/gpx.xsd" version="1.1" creator="VisuGPX - https://www.visugpx.com">
  <metadata>
    <name>Course du Glandasse 2008 PIB</name>
    <desc><![CDATA[De Valcroissant à Pié Ferré PIB]]></desc>
  </metadata>
  <trk>
    <name><![CDATA[Course Glandasse 240608 PIB]]></name>
    <trkseg>
      <trkpt lat="44.74535" lon="5.43285">
        <ele>662</ele>
        <time>2008-06-24T07:52:40Z</time>
      </trkpt>
      <trkpt lat="44.7453" lon="5.43348">
        <ele>671</ele>
        <time>2008-06-24T07:53:31Z</time>
      </trkpt>
      <trkpt lat="44.7453" lon="5.43412">
        <ele>678</ele>
        <time>2008-06-24T07:54:13Z</time>
      </trkpt>
      <trkpt lat="44.74548" lon="5.4347">
        <ele>679</ele>
        <time>2008-06-24T07:54:52Z</time>
      </trkpt>
      <trkpt lat="44.7457" lon="5.43528">
        <ele>684</ele>
        <time>2008-06-24T07:55:26Z</time>
      </trkpt>
      <trkpt lat="44.74593" lon="5.43583">
        <ele>690</ele>
        <time>2008-06-24T07:56:09Z</time>
      </trkpt>
      <trkpt lat="44.74608" lon="5.43645">
        <ele>701</ele>
        <time>2008-06-24T07:56:48Z</time>
      </trkpt>
      <trkpt lat="44.74625" lon="5.43705">
        <ele>714</ele>
        <time>2008-06-24T07:58:01Z</time>
      </trkpt>
      <trkpt lat="44.74643" lon="5.43763">
        <ele>727</ele>
        <time>2008-06-24T07:58:55Z</time>
      </trkpt>
      <trkpt lat="44.74658" lon="5.43825">
        <ele>739</ele>
        <time>2008-06-24T07:59:36Z</time>
      </trkpt>
      <trkpt lat="44.74677" lon="5.43882">
        <ele>748</ele>
        <time>2008-06-24T08:00:17Z</time>
      </trkpt>
      <trkpt lat="44.74698" lon="5.43938">
        <ele>759</ele>
        <time>2008-06-24T08:01:00Z</time>
      </trkpt>
      <trkpt lat="44.74708" lon="5.44002">
        <ele>769</ele>
        <time>2008-06-24T08:02:12Z</time>
      </trkpt>
      <trkpt lat="44.74725" lon="5.4406">
        <ele>784</ele>
        <time>2008-06-24T08:03:19Z</time>
      </trkpt>
      <trkpt lat="44.7474" lon="5.4412">
        <ele>805</ele>
        <time>2008-06-24T08:04:27Z</time>
      </trkpt>
      <trkpt lat="44.74763" lon="5.44177">
        <ele>824</ele>
        <time>2008-06-24T08:05:35Z</time>
      </trkpt>
      <trkpt lat="44.74787" lon="5.4423">
        <ele>845</ele>
        <time>2008-06-24T08:06:49Z</time>
      </trkpt>
      <trkpt lat="44.74807" lon="5.44288">
        <ele>865</ele>
        <time>2008-06-24T08:08:15Z</time>
      </trkpt>
      <trkpt lat="44.74793" lon="5.44348">
        <ele>889</ele>
        <time>2008-06-24T08:09:59Z</time>
      </trkpt>
      <trkpt lat="44.74797" lon="5.44413">
        <ele>921</ele>
        <time>2008-06-24T08:11:47Z</time>
      </trkpt>
      <trkpt lat="44.74813" lon="5.44472">
        <ele>951</ele>
        <time>2008-06-24T08:13:38Z</time>
      </trkpt>
      <trkpt lat="44.74845" lon="5.44518">
        <ele>978</ele>
        <time>2008-06-24T08:15:21Z</time>
      </trkpt>
      <trkpt lat="44.74887" lon="5.44547">
        <ele>991</ele>
        <time>2008-06-24T08:16:35Z</time>
      </trkpt>
      <trkpt lat="44.74907" lon="5.44603">
        <ele>1019</ele>
        <time>2008-06-24T08:18:24Z</time>
      </trkpt>
      <trkpt lat="44.74938" lon="5.44557">
        <ele>1012</ele>
        <time>2008-06-24T08:19:16Z</time>
      </trkpt>
      <trkpt lat="44.74972" lon="5.44513">
        <ele>1021</ele>
        <time>2008-06-24T08:19:51Z</time>
      </trkpt>
      <trkpt lat="44.75017" lon="5.445">
        <ele>1032</ele>
        <time>2008-06-24T08:20:27Z</time>
      </trkpt>
      <trkpt lat="44.75057" lon="5.44468">
        <ele>1033</ele>
        <time>2008-06-24T08:21:04Z</time>
      </trkpt>
      <trkpt lat="44.751" lon="5.44448">
        <ele>1037</ele>
        <time>2008-06-24T08:21:40Z</time>
      </trkpt>
      <trkpt lat="44.75145" lon="5.4444">
        <ele>1037</ele>
        <time>2008-06-24T08:22:16Z</time>
      </trkpt>
      <trkpt lat="44.75112" lon="5.44485">
        <ele>1053</ele>
        <time>2008-06-24T08:23:39Z</time>
      </trkpt>
      <trkpt lat="44.75078" lon="5.44528">
        <ele>1060</ele>
        <time>2008-06-24T08:24:21Z</time>
      </trkpt>
      <trkpt lat="44.75043" lon="5.4457">
        <ele>1066</ele>
        <time>2008-06-24T08:25:00Z</time>
      </trkpt>
      <trkpt lat="44.75015" lon="5.4462">
        <ele>1072</ele>
        <time>2008-06-24T08:25:37Z</time>
      </trkpt>
      <trkpt lat="44.75002" lon="5.44683">
        <ele>1082</ele>
        <time>2008-06-24T08:26:06Z</time>
      </trkpt>
      <trkpt lat="44.74985" lon="5.44742">
        <ele>1089</ele>
        <time>2008-06-24T08:26:40Z</time>
      </trkpt>
      <trkpt lat="44.74967" lon="5.448">
        <ele>1097</ele>
        <time>2008-06-24T08:27:19Z</time>
      </trkpt>
      <trkpt lat="44.74935" lon="5.44847">
        <ele>1096</ele>
        <time>2008-06-24T08:28:11Z</time>
      </trkpt>
      <trkpt lat="44.74893" lon="5.44872">
        <ele>1101</ele>
        <time>2008-06-24T08:29:29Z</time>
      </trkpt>
      <trkpt lat="44.74852" lon="5.44847">
        <ele>1114</ele>
        <time>2008-06-24T08:30:48Z</time>
      </trkpt>
      <trkpt lat="44.74812" lon="5.44815">
        <ele>1131</ele>
        <time>2008-06-24T08:31:40Z</time>
      </trkpt>
      <trkpt lat="44.74775" lon="5.4478">
        <ele>1138</ele>
        <time>2008-06-24T08:32:50Z</time>
      </trkpt>
      <trkpt lat="44.74728" lon="5.44773">
        <ele>1148</ele>
        <time>2008-06-24T08:34:01Z</time>
      </trkpt>
      <trkpt lat="44.74683" lon="5.44773">
        <ele>1159</ele>
        <time>2008-06-24T08:34:51Z</time>
      </trkpt>
      <trkpt lat="44.74643" lon="5.44803">
        <ele>1177</ele>
        <time>2008-06-24T08:35:48Z</time>
      </trkpt>
      <trkpt lat="44.74598" lon="5.44815">
        <ele>1189</ele>
        <time>2008-06-24T08:37:01Z</time>
      </trkpt>
      <trkpt lat="44.74553" lon="5.448">
        <ele>1198</ele>
        <time>2008-06-24T08:37:55Z</time>
      </trkpt>
      <trkpt lat="44.74508" lon="5.448">
        <ele>1216</ele>
        <time>2008-06-24T08:39:07Z</time>
      </trkpt>
      <trkpt lat="44.74463" lon="5.44812">
        <ele>1240</ele>
        <time>2008-06-24T08:40:13Z</time>
      </trkpt>
      <trkpt lat="44.74418" lon="5.44805">
        <ele>1252</ele>
        <time>2008-06-24T08:41:45Z</time>
      </trkpt>
      <trkpt lat="44.7438" lon="5.44842">
        <ele>1268</ele>
        <time>2008-06-24T08:42:28Z</time>
      </trkpt>
      <trkpt lat="44.74337" lon="5.4486">
        <ele>1271</ele>
        <time>2008-06-24T08:43:21Z</time>
      </trkpt>
      <trkpt lat="44.74292" lon="5.44868">
        <ele>1278</ele>
        <time>2008-06-24T08:43:54Z</time>
      </trkpt>
      <trkpt lat="44.74245" lon="5.44868">
        <ele>1286</ele>
        <time>2008-06-24T08:44:38Z</time>
      </trkpt>
      <trkpt lat="44.74205" lon="5.44895">
        <ele>1295</ele>
        <time>2008-06-24T08:45:36Z</time>
      </trkpt>
      <trkpt lat="44.74225" lon="5.44952">
        <ele>1324</ele>
        <time>2008-06-24T08:47:39Z</time>
      </trkpt>
      <trkpt lat="44.74258" lon="5.44997">
        <ele>1350</ele>
        <time>2008-06-24T08:49:14Z</time>
      </trkpt>
      <trkpt lat="44.74247" lon="5.45058">
        <ele>1381</ele>
        <time>2008-06-24T08:52:17Z</time>
      </trkpt>
      <trkpt lat="44.74288" lon="5.4508">
        <ele>1384</ele>
        <time>2008-06-24T08:53:00Z</time>
      </trkpt>
      <trkpt lat="44.74332" lon="5.45102">
        <ele>1392</ele>
        <time>2008-06-24T08:53:54Z</time>
      </trkpt>
      <trkpt lat="44.74325" lon="5.45165">
        <ele>1416</ele>
        <time>2008-06-24T08:56:12Z</time>
      </trkpt>
      <trkpt lat="44.74335" lon="5.45227">
        <ele>1440</ele>
        <time>2008-06-24T08:57:46Z</time>
      </trkpt>
      <trkpt lat="44.7438" lon="5.45238">
        <ele>1444</ele>
        <time>2008-06-24T08:58:35Z</time>
      </trkpt>
      <trkpt lat="44.74365" lon="5.453">
        <ele>1469</ele>
        <time>2008-06-24T09:00:06Z</time>
      </trkpt>
      <trkpt lat="44.74327" lon="5.45333">
        <ele>1481</ele>
        <time>2008-06-24T09:01:19Z</time>
      </trkpt>
      <trkpt lat="44.7435" lon="5.45387">
        <ele>1499</ele>
        <time>2008-06-24T09:02:34Z</time>
      </trkpt>
      <trkpt lat="44.74367" lon="5.45447">
        <ele>1523</ele>
        <time>2008-06-24T09:04:03Z</time>
      </trkpt>
      <trkpt lat="44.74398" lon="5.45492">
        <ele>1542</ele>
        <time>2008-06-24T09:05:53Z</time>
      </trkpt>
      <trkpt lat="44.7444" lon="5.45517">
        <ele>1552</ele>
        <time>2008-06-24T09:07:05Z</time>
      </trkpt>
      <trkpt lat="44.74422" lon="5.45575">
        <ele>1574</ele>
        <time>2008-06-24T09:08:53Z</time>
      </trkpt>
      <trkpt lat="44.7443" lon="5.45638">
        <ele>1599</ele>
        <time>2008-06-24T09:11:03Z</time>
      </trkpt>
      <trkpt lat="44.74433" lon="5.45702">
        <ele>1624</ele>
        <time>2008-06-24T09:13:37Z</time>
      </trkpt>
      <trkpt lat="44.7445" lon="5.45762">
        <ele>1648</ele>
        <time>2008-06-24T09:15:30Z</time>
      </trkpt>
      <trkpt lat="44.7442" lon="5.4581">
        <ele>1681</ele>
        <time>2008-06-24T09:17:19Z</time>
      </trkpt>
      <trkpt lat="44.74452" lon="5.45857">
        <ele>1698</ele>
        <time>2008-06-24T09:18:45Z</time>
      </trkpt>
      <trkpt lat="44.74432" lon="5.45913">
        <ele>1726</ele>
        <time>2008-06-24T09:20:31Z</time>
      </trkpt>
      <trkpt lat="44.74387" lon="5.45933">
        <ele>1744</ele>
        <time>2008-06-24T09:21:30Z</time>
      </trkpt>
      <trkpt lat="44.74345" lon="5.45955">
        <ele>1760</ele>
        <time>2008-06-24T09:23:02Z</time>
      </trkpt>
      <trkpt lat="44.74308" lon="5.45995">
        <ele>1785</ele>
        <time>2008-06-24T09:24:55Z</time>
      </trkpt>
      <trkpt lat="44.74273" lon="5.46037">
        <ele>1809</ele>
        <time>2008-06-24T09:26:51Z</time>
      </trkpt>
      <trkpt lat="44.74233" lon="5.46063">
        <ele>1822</ele>
        <time>2008-06-24T09:28:09Z</time>
      </trkpt>
      <trkpt lat="44.742" lon="5.46108">
        <ele>1840</ele>
        <time>2008-06-24T09:30:03Z</time>
      </trkpt>
      <trkpt lat="44.7417" lon="5.46157">
        <ele>1850</ele>
        <time>2008-06-24T09:31:46Z</time>
      </trkpt>
      <trkpt lat="44.74187" lon="5.46215">
        <ele>1859</ele>
        <time>2008-06-24T09:32:42Z</time>
      </trkpt>
      <trkpt lat="44.74225" lon="5.46253">
        <ele>1868</ele>
        <time>2008-06-24T09:33:15Z</time>
      </trkpt>
      <trkpt lat="44.74217" lon="5.46318">
        <ele>1877</ele>
        <time>2008-06-24T09:33:53Z</time>
      </trkpt>
      <trkpt lat="44.74192" lon="5.4637">
        <ele>1881</ele>
        <time>2008-06-24T09:34:36Z</time>
      </trkpt>
      <trkpt lat="44.74165" lon="5.46423">
        <ele>1889</ele>
        <time>2008-06-24T09:35:40Z</time>
      </trkpt>
      <trkpt lat="44.74132" lon="5.46468">
        <ele>1901</ele>
        <time>2008-06-24T09:36:52Z</time>
      </trkpt>
      <trkpt lat="44.74097" lon="5.46505">
        <ele>1914</ele>
        <time>2008-06-24T09:38:09Z</time>
      </trkpt>
      <trkpt lat="44.74067" lon="5.46553">
        <ele>1929</ele>
        <time>2008-06-24T09:39:34Z</time>
      </trkpt>
      <trkpt lat="44.74038" lon="5.46603">
        <ele>1942</ele>
        <time>2008-06-24T09:40:36Z</time>
      </trkpt>
      <trkpt lat="44.74018" lon="5.46662">
        <ele>1956</ele>
        <time>2008-06-24T09:41:23Z</time>
      </trkpt>
      <trkpt lat="44.73987" lon="5.46708">
        <ele>1966</ele>
        <time>2008-06-24T09:42:15Z</time>
      </trkpt>
      <trkpt lat="44.7396" lon="5.4676">
        <ele>1976</ele>
        <time>2008-06-24T09:43:13Z</time>
      </trkpt>
      <trkpt lat="44.73925" lon="5.46802">
        <ele>1985</ele>
        <time>2008-06-24T09:44:11Z</time>
      </trkpt>
      <trkpt lat="44.73895" lon="5.46848">
        <ele>1993</ele>
        <time>2008-06-24T09:45:15Z</time>
      </trkpt>
      <trkpt lat="44.73858" lon="5.46887">
        <ele>2002</ele>
        <time>2008-06-24T09:46:09Z</time>
      </trkpt>
      <trkpt lat="44.7382" lon="5.46918">
        <ele>2010</ele>
        <time>2008-06-24T09:47:12Z</time>
      </trkpt>
      <trkpt lat="44.73778" lon="5.46948">
        <ele>2018</ele>
        <time>2008-06-24T09:48:09Z</time>
      </trkpt>
      <trkpt lat="44.73712" lon="5.47015">
        <ele>2029.139771</ele>
        <time>2008-06-24T09:48:56Z</time>
      </trkpt>
    </trkseg>
  </trk>
</gpx>